Time;durP1;ratioP1;P1;durP2;ratioP2;P2;SDS_P1;SDS_P2;PMS_P1;PMS_P2;Temp;Humidity;BMP_temperature;BMP_pressure;BME280_temperature;BME280_humidity;BME280_pressure;Samples;Min_cycle;Max_cycle;Signal;HPM_P1;HPM_P2
2021/06/07 00:01:39;;;;;;;34.03;22.13;;;17.10;90.50;;;;;;5015041;28;20582;-76
2021/06/07 00:04:07;;;;;;;32.97;21.47;;;17.10;90.50;;;;;;5014679;28;20516;-75
2021/06/07 00:06:34;;;;;;;29.13;20.23;;;17.20;90.50;;;;;;5014500;28;20525;-75
2021/06/07 00:09:06;;;;;;;31.57;21.63;;;17.20;90.00;;;;;;5015198;28;20497;-74
2021/06/07 00:11:33;;;;;;;30.30;21.13;;;17.20;89.60;;;;;;5014978;28;20488;-75
2021/06/07 00:14:01;;;;;;;34.27;21.53;;;17.20;89.70;;;;;;5014655;28;20490;-74
2021/06/07 00:16:28;;;;;;;37.63;23.50;;;17.10;89.70;;;;;;5014454;28;20461;-75
2021/06/07 00:18:54;;;;;;;32.43;22.17;;;17.10;89.50;;;;;;5015089;28;20585;-74
2021/06/07 00:21:23;;;;;;;39.10;23.20;;;17.10;90.10;;;;;;5016962;28;20494;-75
2021/06/07 00:23:51;;;;;;;32.40;20.80;;;17.10;90.00;;;;;;5015916;28;20470;-74
2021/06/07 00:26:19;;;;;;;34.23;23.53;;;17.10;90.10;;;;;;5015790;28;20543;-75
2021/06/07 00:28:46;;;;;;;32.23;20.23;;;17.10;90.50;;;;;;5037032;28;20438;-79
2021/06/07 00:31:13;;;;;;;29.73;20.50;;;17.10;90.50;;;;;;5037190;28;20439;-77
2021/06/07 00:33:40;;;;;;;32.53;21.70;;;17.10;90.50;;;;;;5020455;28;21012;-75
2021/06/07 00:36:09;;;;;;;31.73;21.00;;;17.10;90.50;;;;;;5015721;28;20968;-75
2021/06/07 00:38:36;;;;;;;31.07;21.10;;;17.00;90.50;;;;;;5025497;28;20455;-75
2021/06/07 00:41:07;;;;;;;32.33;21.70;;;17.00;90.40;;;;;;5027403;28;20479;-74
2021/06/07 00:43:36;;;;;;;33.07;21.60;;;17.00;90.50;;;;;;5014093;28;20524;-79
2021/06/07 00:46:02;;;;;;;32.50;21.77;;;17.00;90.40;;;;;;5014179;28;20546;-76
2021/06/07 00:48:29;;;;;;;28.30;20.03;;;17.10;90.50;;;;;;5014219;28;20557;-76
2021/06/07 00:51:00;;;;;;;28.30;20.23;;;17.10;90.50;;;;;;5014110;28;20906;-74
2021/06/07 00:53:26;;;;;;;31.10;21.30;;;17.10;90.50;;;;;;5014375;28;20482;-74
2021/06/07 00:55:56;;;;;;;31.73;20.90;;;17.10;90.50;;;;;;5014493;28;20506;-76
2021/06/07 00:58:25;;;;;;;30.57;19.17;;;17.10;90.50;;;;;;5014444;28;20434;-74
2021/06/07 01:00:53;;;;;;;31.10;21.00;;;17.10;90.50;;;;;;5013933;28;20585;-75
2021/06/07 01:03:21;;;;;;;31.70;20.60;;;17.00;90.50;;;;;;5014527;28;20474;-75
2021/06/07 01:05:49;;;;;;;29.23;19.20;;;17.10;90.70;;;;;;5014056;28;20573;-77
2021/06/07 01:08:16;;;;;;;30.47;20.00;;;17.10;90.20;;;;;;5014120;28;20463;-76
2021/06/07 01:10:45;;;;;;;33.00;21.83;;;17.10;90.50;;;;;;5014026;28;20891;-74
2021/06/07 01:13:13;;;;;;;29.27;20.53;;;17.10;90.50;;;;;;5013665;28;20508;-75
2021/06/07 01:15:40;;;;;;;30.50;21.13;;;17.10;90.50;;;;;;5014012;28;20484;-75
2021/06/07 01:18:09;;;;;;;32.73;20.80;;;17.10;90.50;;;;;;5014183;28;20458;-74
2021/06/07 01:20:35;;;;;;;39.50;21.27;;;17.10;90.20;;;;;;5013471;28;20508;-75
2021/06/07 01:23:03;;;;;;;34.10;21.47;;;17.10;90.50;;;;;;5018874;28;20534;-76
2021/06/07 01:25:32;;;;;;;30.57;21.10;;;17.10;89.90;;;;;;5036742;28;20438;-77
2021/06/07 01:27:59;;;;;;;29.33;21.00;;;17.10;89.70;;;;;;5036918;28;20458;-77
2021/06/07 01:30:27;;;;;;;32.67;21.57;;;17.10;90.30;;;;;;5037295;28;20462;-79
2021/06/07 01:32:54;;;;;;;31.93;21.33;;;17.10;89.90;;;;;;5025833;28;20454;-75
2021/06/07 01:35:21;;;;;;;31.00;19.70;;;17.10;90.00;;;;;;5017294;28;20450;-75
2021/06/07 01:37:50;;;;;;;32.17;20.23;;;17.10;89.80;;;;;;5024454;28;20459;-77
2021/06/07 01:40:20;;;;;;;32.30;20.20;;;17.10;90.10;;;;;;5023572;28;20932;-75
2021/06/07 01:42:47;;;;;;;30.60;21.00;;;17.10;90.20;;;;;;5012519;28;20575;-75
2021/06/07 01:45:18;;;;;;;32.87;19.90;;;17.10;90.00;;;;;;5012623;28;20487;-75
2021/06/07 01:47:45;;;;;;;29.47;19.93;;;17.10;90.20;;;;;;5012899;28;20521;-75
2021/06/07 01:50:12;;;;;;;32.53;21.07;;;17.10;90.10;;;;;;5013046;28;20849;-75
2021/06/07 01:52:44;;;;;;;27.27;19.27;;;17.00;90.30;;;;;;5012541;28;20546;-76
2021/06/07 01:55:12;;;;;;;30.70;19.83;;;16.90;90.40;;;;;;5012984;28;20788;-75
2021/06/07 01:57:40;;;;;;;30.53;20.33;;;16.80;90.70;;;;;;5012949;28;20512;-73
2021/06/07 02:00:10;;;;;;;32.83;20.10;;;16.90;91.10;;;;;;5026615;28;20533;-76
2021/06/07 02:02:41;;;;;;;32.27;21.60;;;16.90;90.40;;;;;;5036869;28;20473;-78
2021/06/07 02:05:09;;;;;;;33.10;20.83;;;16.90;90.40;;;;;;5036845;28;20458;-80
2021/06/07 02:07:35;;;;;;;31.97;19.47;;;16.80;90.80;;;;;;5037067;28;20424;-79
2021/06/07 02:10:02;;;;;;;29.93;20.23;;;16.90;90.60;;;;;;5037281;28;20459;-78
2021/06/07 02:12:28;;;;;;;33.88;20.35;;;16.80;90.60;;;;;;5037359;28;20432;-78
2021/06/07 02:14:56;;;;;;;31.45;20.77;;;16.80;90.90;;;;;;5037110;28;20188;-80
2021/06/07 02:17:22;;;;;;;27.85;20.55;;;16.80;90.90;;;;;;5032244;28;20234;-75
2021/06/07 02:19:49;;;;;;;29.00;19.60;;;16.80;90.30;;;;;;5015089;28;20247;-76
2021/06/07 02:22:15;;;;;;;32.73;20.57;;;16.80;90.30;;;;;;5018267;28;21049;-75
2021/06/07 02:24:41;;;;;;;33.03;22.52;;;16.90;90.40;;;;;;5014659;28;20456;-76
2021/06/07 02:27:08;;;;;;;29.93;18.90;;;16.80;90.30;;;;;;5030217;28;20259;-75
2021/06/07 02:29:35;;;;;;;30.50;21.13;;;16.80;90.30;;;;;;5013640;28;20558;-75
2021/06/07 02:32:03;;;;;;;30.10;20.80;;;16.80;90.40;;;;;;5012536;28;20494;-77
2021/06/07 02:34:30;;;;;;;28.17;20.83;;;16.90;90.40;;;;;;5012063;28;20541;-75
2021/06/07 02:36:56;;;;;;;33.57;21.13;;;16.80;90.40;;;;;;5012699;28;20548;-76
2021/06/07 02:39:23;;;;;;;30.20;21.60;;;16.80;90.90;;;;;;5012198;28;20531;-75
2021/06/07 02:41:49;;;;;;;30.10;20.73;;;16.70;91.00;;;;;;5012097;28;20486;-75
2021/06/07 02:44:20;;;;;;;30.10;21.60;;;16.70;91.60;;;;;;5012019;28;20362;-77
2021/06/07 02:46:47;;;;;;;32.67;20.70;;;16.70;91.10;;;;;;5012198;28;20903;-75
2021/06/07 02:49:15;;;;;;;29.03;20.50;;;16.80;91.00;;;;;;5014779;28;20871;-74
2021/06/07 02:51:41;;;;;;;29.87;21.30;;;16.80;90.80;;;;;;5028722;28;20458;-76
2021/06/07 02:54:08;;;;;;;30.27;21.77;;;16.80;90.70;;;;;;5031503;28;20534;-75
2021/06/07 02:56:34;;;;;;;33.53;20.40;;;16.80;90.50;;;;;;5015920;28;20474;-74
2021/06/07 02:59:01;;;;;;;29.33;20.40;;;16.80;90.40;;;;;;5015440;28;20486;-74
2021/06/07 03:01:28;;;;;;;27.83;20.77;;;16.90;90.40;;;;;;5015573;28;20228;-75
2021/06/07 03:03:54;;;;;;;31.47;21.93;;;16.90;90.40;;;;;;5015239;28;20554;-75
2021/06/07 03:06:22;;;;;;;32.10;21.53;;;16.80;90.30;;;;;;5015313;28;20463;-75
2021/06/07 03:08:48;;;;;;;33.80;21.83;;;16.90;90.40;;;;;;5015645;28;20541;-75
2021/06/07 03:11:15;;;;;;;34.50;22.67;;;16.90;90.40;;;;;;5015203;28;20447;-75
2021/06/07 03:13:43;;;;;;;31.70;21.43;;;16.90;90.40;;;;;;5014725;28;20963;-75
2021/06/07 03:16:10;;;;;;;35.07;22.50;;;16.80;90.50;;;;;;5038202;22;20893;-79
2021/06/07 03:18:37;;;;;;;32.70;21.27;;;16.80;90.90;;;;;;5019174;28;20942;-78
2021/06/07 03:21:05;;;;;;;32.25;22.60;;;16.90;90.90;;;;;;5017614;28;20581;-79
2021/06/07 03:23:34;;;;;;;35.00;22.40;;;16.90;90.80;;;;;;5022172;28;20242;-79
2021/06/07 03:26:01;;;;;;;32.28;22.00;;;16.90;90.60;;;;;;5020942;28;20871;-79
2021/06/07 03:28:28;;;;;;;30.10;22.70;;;16.90;90.40;;;;;;5023571;28;20623;-79
2021/06/07 03:30:56;;;;;;;32.17;21.50;;;16.90;91.00;;;;;;5025565;28;20466;-79
2021/06/07 03:33:23;;;;;;;28.47;21.30;;;16.90;91.10;;;;;;5022094;28;20479;-79
2021/06/07 03:35:51;;;;;;;31.43;22.60;;;16.90;91.00;;;;;;5025201;28;20470;-78
2021/06/07 03:38:17;;;;;;;32.23;21.33;;;16.90;90.80;;;;;;5027291;28;20519;-79
2021/06/07 03:40:47;;;;;;;27.97;21.80;;;16.90;90.60;;;;;;5022642;28;20886;-79
2021/06/07 03:43:15;;;;;;;34.23;22.30;;;16.90;90.90;;;;;;5025772;28;20455;-79
2021/06/07 03:45:41;;;;;;;28.47;21.53;;;16.90;90.80;;;;;;5027597;28;20489;-79
2021/06/07 03:48:08;;;;;;;29.50;22.10;;;16.90;90.80;;;;;;5030384;28;20486;-82
2021/06/07 03:50:37;;;;;;;31.47;21.80;;;16.90;90.80;;;;;;5026682;28;20471;-79
2021/06/07 03:53:04;;;;;;;35.20;23.50;;;16.90;91.10;;;;;;5022466;28;20431;-80
2021/06/07 03:55:31;;;;;;;34.23;23.67;;;16.90;91.30;;;;;;5025507;28;20962;-80
2021/06/07 03:57:59;;;;;;;32.53;23.23;;;16.90;91.30;;;;;;5029902;28;20469;-79
2021/06/07 04:00:28;;;;;;;32.77;23.53;;;16.90;91.30;;;;;;5028746;28;20486;-79
2021/06/07 04:02:55;;;;;;;33.20;23.17;;;16.90;91.60;;;;;;5021302;28;20424;-78
2021/06/07 04:05:22;;;;;;;33.83;22.80;;;16.90;91.50;;;;;;5024309;28;20486;-79
2021/06/07 04:07:48;;;;;;;31.80;22.87;;;16.90;91.90;;;;;;5023733;28;20459;-79
2021/06/07 04:10:17;;;;;;;31.97;22.73;;;16.80;92.20;;;;;;5019263;28;20585;-78
2021/06/07 04:12:46;;;;;;;36.63;22.77;;;16.80;92.30;;;;;;5015040;28;20471;-81
2021/06/07 04:15:15;;;;;;;36.93;25.30;;;16.90;92.30;;;;;;5016363;28;20455;-79
2021/06/07 04:17:42;;;;;;;37.20;24.63;;;16.80;92.70;;;;;;5016275;28;20479;-78
2021/06/07 04:20:11;;;;;;;35.67;24.93;;;16.80;93.10;;;;;;5021646;28;20526;-81
2021/06/07 04:22:38;;;;;;;37.80;25.70;;;16.80;93.70;;;;;;5028792;28;20429;-80
2021/06/07 04:25:05;;;;;;;40.13;25.20;;;16.70;94.10;;;;;;5024320;28;20914;-80
2021/06/07 04:27:32;;;;;;;40.40;25.33;;;16.70;95.60;;;;;;5020552;28;20456;-78
2021/06/07 04:29:59;;;;;;;37.83;26.15;;;16.60;96.70;;;;;;5016788;28;20267;-78
2021/06/07 04:32:27;;;;;;;38.00;26.63;;;16.60;97.60;;;;;;5015803;28;20218;-79
2021/06/07 04:34:53;;;;;;;42.13;27.17;;;16.60;98.20;;;;;;5015941;28;20455;-78
2021/06/07 04:37:19;;;;;;;41.63;27.95;;;16.50;99.40;;;;;;5017310;28;20582;-79
2021/06/07 04:39:46;;;;;;;43.17;27.40;;;16.50;99.90;;;;;;5015156;28;20298;-78
2021/06/07 04:42:12;;;;;;;47.13;28.87;;;16.50;99.90;;;;;;5018324;28;21006;-77
2021/06/07 04:44:39;;;;;;;42.80;29.37;;;16.40;99.90;;;;;;5018173;28;20915;-78
2021/06/07 04:47:05;;;;;;;41.43;27.60;;;16.50;99.90;;;;;;5018244;28;20506;-78
2021/06/07 04:49:33;;;;;;;44.20;28.63;;;16.50;99.90;;;;;;5016664;28;20462;-78
2021/06/07 04:51:59;;;;;;;45.80;27.80;;;16.40;99.90;;;;;;5017363;28;20470;-79
2021/06/07 04:54:26;;;;;;;46.83;29.20;;;16.40;99.90;;;;;;5018162;28;20497;-78
2021/06/07 04:56:52;;;;;;;43.83;29.40;;;16.40;99.90;;;;;;5016817;28;20247;-79
2021/06/07 04:59:19;;;;;;;44.60;28.70;;;16.40;99.90;;;;;;5015968;28;20454;-78
2021/06/07 05:01:45;;;;;;;44.67;28.27;;;16.40;99.90;;;;;;5017277;28;20234;-79
2021/06/07 05:04:11;;;;;;;41.73;28.50;;;16.30;99.90;;;;;;5019539;28;20290;-78
2021/06/07 05:06:40;;;;;;;43.73;28.47;;;16.30;99.90;;;;;;5019225;28;20461;-78
2021/06/07 05:09:06;;;;;;;44.73;30.30;;;16.40;99.90;;;;;;5014730;28;20451;-78
2021/06/07 05:11:32;;;;;;;49.80;30.47;;;16.40;99.90;;;;;;5014341;28;20477;-78
2021/06/07 05:13:59;;;;;;;47.37;28.73;;;16.40;99.90;;;;;;5017963;28;20459;-78
2021/06/07 05:16:26;;;;;;;41.80;28.53;;;16.40;99.90;;;;;;5025008;28;20453;-79
2021/06/07 05:18:53;;;;;;;45.70;28.73;;;16.50;99.90;;;;;;5022615;28;20892;-78
2021/06/07 05:21:19;;;;;;;42.33;28.60;;;16.40;99.90;;;;;;5017230;28;20453;-78
2021/06/07 05:23:47;;;;;;;44.07;28.70;;;16.40;99.90;;;;;;5013234;28;20830;-79
2021/06/07 05:26:13;;;;;;;46.72;30.55;;;16.40;99.90;;;;;;5014496;28;20551;-78
2021/06/07 05:28:40;;;;;;;42.90;27.37;;;16.40;99.90;;;;;;5014975;28;20302;-78
2021/06/07 05:31:06;;;;;;;45.97;30.40;;;16.40;99.90;;;;;;5017540;28;20837;-78
2021/06/07 05:33:32;;;;;;;43.43;29.17;;;16.50;99.90;;;;;;5027569;28;21000;-78
2021/06/07 05:35:59;;;;;;;41.50;28.73;;;16.50;99.90;;;;;;5024813;28;20471;-78
2021/06/07 05:38:25;;;;;;;41.60;28.00;;;16.50;99.90;;;;;;5021216;28;20828;-78
2021/06/07 05:40:54;;;;;;;41.70;27.87;;;16.50;99.90;;;;;;5013997;28;20490;-79
2021/06/07 05:43:23;;;;;;;40.97;28.13;;;16.60;99.90;;;;;;5013541;28;20469;-78
2021/06/07 05:45:50;;;;;;;43.30;28.35;;;16.60;99.90;;;;;;5016217;28;20466;-78
2021/06/07 05:48:17;;;;;;;42.43;26.73;;;16.60;99.90;;;;;;5019846;28;20215;-79
2021/06/07 05:50:44;;;;;;;44.17;28.83;;;16.70;99.90;;;;;;5019187;28;20442;-77
2021/06/07 05:53:12;;;;;;;41.20;27.20;;;16.70;99.90;;;;;;5019031;28;20441;-77
2021/06/07 05:55:41;;;;;;;39.37;27.53;;;16.70;99.90;;;;;;5019505;28;20517;-78
2021/06/07 05:58:11;;;;;;;43.33;27.00;;;16.70;99.90;;;;;;5018592;28;20512;-79
2021/06/07 06:00:40;;;;;;;37.20;26.43;;;16.70;99.90;;;;;;5027935;28;20466;-78
2021/06/07 06:03:07;;;;;;;40.03;27.40;;;16.60;99.90;;;;;;5031223;28;20451;-78
2021/06/07 06:05:34;;;;;;;37.30;26.50;;;16.70;99.90;;;;;;5031056;28;20522;-78
2021/06/07 06:08:01;;;;;;;31.87;23.90;;;16.70;99.90;;;;;;5025019;28;20496;-79
2021/06/07 06:10:27;;;;;;;32.13;24.10;;;16.70;99.90;;;;;;5020002;28;20478;-79
2021/06/07 06:12:54;;;;;;;34.20;26.03;;;16.70;99.90;;;;;;5019035;28;20509;-80
2021/06/07 06:15:24;;;;;;;28.47;22.23;;;16.70;99.90;;;;;;5022845;28;20466;-78
2021/06/07 06:17:51;;;;;;;30.30;23.13;;;16.70;99.90;;;;;;5022978;28;20482;-79
2021/06/07 06:20:18;;;;;;;31.67;24.50;;;16.70;99.90;;;;;;5022548;28;20461;-78
2021/06/07 06:22:46;;;;;;;28.50;23.70;;;16.80;99.90;;;;;;5025197;28;20442;-80
2021/06/07 06:25:14;;;;;;;29.73;23.80;;;16.70;99.90;;;;;;5032806;28;20458;-79
2021/06/07 06:27:41;;;;;;;28.07;21.10;;;16.80;99.90;;;;;;5031358;28;20489;-78
2021/06/07 06:30:10;;;;;;;29.00;22.60;;;16.70;99.90;;;;;;5032704;28;20470;-78
2021/06/07 06:32:39;;;;;;;23.87;20.83;;;16.70;99.90;;;;;;5035399;28;20447;-77
2021/06/07 06:35:07;;;;;;;24.80;21.53;;;16.80;99.90;;;;;;5028891;28;20455;-79
2021/06/07 06:37:33;;;;;;;24.53;20.53;;;16.90;99.90;;;;;;5034091;28;20801;-78
2021/06/07 06:39:59;;;;;;;26.00;21.50;;;17.00;99.90;;;;;;5028545;28;20934;-78
2021/06/07 06:42:26;;;;;;;21.93;19.57;;;16.90;99.90;;;;;;5021895;28;20516;-80
2021/06/07 06:44:52;;;;;;;25.37;21.00;;;16.90;99.90;;;;;;5021161;28;20429;-79
2021/06/07 06:47:19;;;;;;;22.57;19.80;;;16.90;99.90;;;;;;5020553;28;20482;-78
2021/06/07 06:49:46;;;;;;;22.67;19.40;;;16.90;99.90;;;;;;5018775;28;20454;-79
2021/06/07 06:52:13;;;;;;;22.43;19.97;;;17.00;99.90;;;;;;5018883;28;20861;-79
2021/06/07 06:54:39;;;;;;;21.60;18.03;;;17.00;99.90;;;;;;5019450;28;20939;-78
2021/06/07 06:57:06;;;;;;;20.97;18.67;;;17.00;99.90;;;;;;5019723;28;20453;-78
2021/06/07 06:59:33;;;;;;;21.67;19.23;;;17.00;99.90;;;;;;5019743;28;20859;-78
2021/06/07 07:01:59;;;;;;;21.93;18.67;;;17.00;99.90;;;;;;5022555;28;20465;-78
2021/06/07 07:04:25;;;;;;;20.10;18.10;;;17.00;99.90;;;;;;5019172;28;20831;-78
2021/06/07 07:06:53;;;;;;;19.50;17.60;;;17.10;99.90;;;;;;5019830;28;20484;-79
2021/06/07 07:09:20;;;;;;;18.57;16.70;;;17.20;99.90;;;;;;5019125;28;20998;-79
2021/06/07 07:11:47;;;;;;;18.73;16.80;;;17.30;99.90;;;;;;5018169;28;20447;-78
2021/06/07 07:14:13;;;;;;;17.70;15.90;;;17.30;99.90;;;;;;5018484;28;20461;-78
2021/06/07 07:16:40;;;;;;;17.37;15.67;;;17.50;99.90;;;;;;5026236;28;20586;-78
2021/06/07 07:19:06;;;;;;;18.60;16.43;;;17.60;98.80;;;;;;5026767;28;20447;-77
2021/06/07 07:21:32;;;;;;;18.60;16.80;;;17.60;98.00;;;;;;5019060;28;20592;-77
2021/06/07 07:24:00;;;;;;;17.73;15.57;;;17.60;98.10;;;;;;5016846;28;20541;-78
2021/06/07 07:26:27;;;;;;;17.30;15.40;;;17.50;97.70;;;;;;5025281;28;20479;-78
2021/06/07 07:28:53;;;;;;;16.03;14.53;;;17.50;97.50;;;;;;5016558;28;20580;-78
2021/06/07 07:31:19;;;;;;;13.83;12.53;;;17.60;97.40;;;;;;5016655;28;20430;-78
2021/06/07 07:33:48;;;;;;;13.80;12.50;;;17.60;96.90;;;;;;5016363;28;20442;-78
2021/06/07 07:36:15;;;;;;;26.83;24.30;;;17.50;97.10;;;;;;5016320;28;20599;-78
2021/06/07 07:38:42;;;;;;;15.47;13.80;;;17.40;98.00;;;;;;5026357;28;20815;-77
2021/06/07 07:41:11;;;;;;;15.73;14.13;;;17.40;98.00;;;;;;5020003;28;20578;-76
2021/06/07 07:43:38;;;;;;;14.50;13.00;;;17.50;98.60;;;;;;5024621;28;20812;-78
2021/06/07 07:46:04;;;;;;;13.47;12.20;;;17.50;98.00;;;;;;5018774;28;20544;-79
2021/06/07 07:48:31;;;;;;;13.40;12.20;;;17.50;97.80;;;;;;5018246;28;20458;-78
2021/06/07 07:50:58;;;;;;;14.60;11.50;;;17.50;98.00;;;;;;5018857;28;20453;-78
2021/06/07 07:53:27;;;;;;;13.23;11.93;;;17.50;97.40;;;;;;5016406;28;20466;-78
2021/06/07 07:55:54;;;;;;;12.33;11.07;;;17.50;97.20;;;;;;5016157;28;20909;-78
2021/06/07 07:58:22;;;;;;;14.37;12.83;;;17.40;98.00;;;;;;5016466;28;20458;-78
2021/06/07 08:00:49;;;;;;;14.50;12.20;;;17.50;98.00;;;;;;5015958;28;20494;-78
2021/06/07 08:03:16;;;;;;;14.50;13.20;;;17.50;98.00;;;;;;5025396;28;20470;-77
2021/06/07 08:05:43;;;;;;;13.93;12.67;;;17.60;98.10;;;;;;5017292;28;20875;-77
2021/06/07 08:08:10;;;;;;;14.10;12.90;;;17.60;98.10;;;;;;5017312;28;20459;-78
2021/06/07 08:10:37;;;;;;;13.30;12.00;;;17.60;98.40;;;;;;5021182;28;20474;-78
2021/06/07 08:13:04;;;;;;;11.43;10.43;;;17.50;99.50;;;;;;5019550;28;20458;-77
2021/06/07 08:15:34;;;;;;;12.80;11.60;;;17.60;99.80;;;;;;5017223;28;20463;-77
2021/06/07 08:18:00;;;;;;;12.10;11.00;;;17.70;99.00;;;;;;5021266;28;20540;-78
2021/06/07 08:20:27;;;;;;;12.87;10.47;;;17.80;97.80;;;;;;5026153;28;20489;-78
2021/06/07 08:22:55;;;;;;;11.50;10.50;;;17.80;97.30;;;;;;5022378;28;20546;-78
2021/06/07 08:25:23;;;;;;;12.27;11.17;;;17.70;98.00;;;;;;5024040;28;20462;-78
2021/06/07 08:27:50;;;;;;;12.50;11.40;;;17.60;98.80;;;;;;5018963;28;20482;-78
2021/06/07 08:30:18;;;;;;;13.00;11.83;;;17.70;99.90;;;;;;5021542;28;20478;-78
2021/06/07 08:32:46;;;;;;;13.03;11.83;;;17.60;99.80;;;;;;5021447;28;20454;-78
2021/06/07 08:35:13;;;;;;;12.10;11.10;;;17.70;99.90;;;;;;5018803;28;20457;-78
2021/06/07 08:37:40;;;;;;;10.93;9.93;;;17.80;99.90;;;;;;5016278;28;20994;-77
2021/06/07 08:40:08;;;;;;;15.50;11.83;;;18.00;99.80;;;;;;5017021;28;20429;-77
2021/06/07 08:42:37;;;;;;;9.97;9.17;;;18.10;98.20;;;;;;5023191;28;21068;-77
2021/06/07 08:45:04;;;;;;;11.20;10.20;;;18.00;96.70;;;;;;5023304;28;20462;-77
2021/06/07 08:47:32;;;;;;;9.30;8.60;;;18.10;97.40;;;;;;5015829;28;20533;-77
2021/06/07 08:50:00;;;;;;;8.80;8.10;;;18.30;95.80;;;;;;5014395;28;20547;-78
2021/06/07 08:52:26;;;;;;;8.40;7.70;;;18.40;94.70;;;;;;5014745;28;20518;-77
2021/06/07 08:54:53;;;;;;;9.97;8.80;;;18.50;93.50;;;;;;5015728;28;20962;-77
2021/06/07 08:57:19;;;;;;;8.80;8.10;;;18.50;93.50;;;;;;5019696;28;20855;-77
2021/06/07 08:59:46;;;;;;;8.30;7.70;;;18.50;93.90;;;;;;5015723;28;20843;-77
2021/06/07 09:02:12;;;;;;;8.40;7.33;;;18.30;94.20;;;;;;5016137;28;20478;-77
2021/06/07 09:04:49;;;;;;;6.43;5.93;;;18.50;93.50;;;;;;5018708;28;20462;-78
2021/06/07 09:07:18;;;;;;;7.10;6.27;;;18.60;91.10;;;;;;5016989;28;20478;-78
2021/06/07 09:10:17;;;;;;;6.17;5.57;;;18.80;90.90;;;;;;5025091;28;20455;-78
2021/06/07 09:12:44;;;;;;;7.13;6.57;;;18.70;90.50;;;;;;5018867;28;20501;-78
2021/06/07 09:15:25;;;;;;;6.43;5.93;;;18.80;90.00;;;;;;5022840;28;20554;-77
2021/06/07 09:17:52;;;;;;;6.73;6.23;;;18.70;89.90;;;;;;5019464;28;20475;-77
2021/06/07 09:20:20;;;;;;;5.50;5.10;;;18.60;90.40;;;;;;5016322;28;20533;-78
2021/06/07 09:22:53;;;;;;;6.80;6.30;;;18.60;90.30;;;;;;5017249;28;20488;-78
2021/06/07 09:25:23;;;;;;;5.53;5.13;;;18.60;90.10;;;;;;5017776;28;20443;-78
2021/06/07 09:28:18;;;;;;;6.50;6.00;;;18.70;90.70;;;;;;5016489;28;20473;-78
2021/06/07 09:30:48;;;;;;;5.90;5.50;;;18.70;88.80;;;;;;5032049;28;20541;-78
2021/06/07 09:33:24;;;;;;;6.37;5.87;;;18.70;88.30;;;;;;5033334;28;20450;-77
2021/06/07 09:36:18;;;;;;;5.83;5.33;;;18.60;87.80;;;;;;5025560;28;20477;-79
2021/06/07 09:39:21;;;;;;;7.23;6.60;;;18.50;90.00;;;;;;5030944;28;20429;-77
2021/06/07 09:41:59;;;;;;;7.30;6.67;;;18.30;91.00;;;;;;5019605;28;20470;-78
2021/06/07 09:44:43;;;;;;;7.10;6.60;;;18.20;91.30;;;;;;5022973;28;20461;-78
2021/06/07 09:47:20;;;;;;;7.20;6.60;;;18.20;91.80;;;;;;5026981;28;20509;-78
2021/06/07 09:49:50;;;;;;;7.30;6.70;;;18.10;91.80;;;;;;5028151;28;20424;-79
2021/06/07 09:52:20;;;;;;;7.50;6.90;;;18.00;92.80;;;;;;5019015;28;20505;-77
2021/06/07 09:55:05;;;;;;;9.00;8.20;;;18.00;92.80;;;;;;5019477;28;20454;-77
2021/06/07 09:57:48;;;;;;;8.33;7.63;;;18.10;92.90;;;;;;5015321;28;20505;-77
2021/06/07 10:00:33;;;;;;;9.00;8.30;;;18.10;92.90;;;;;;5021134;28;20512;-77
2021/06/07 10:03:17;;;;;;;9.40;8.60;;;18.00;94.00;;;;;;5020898;28;20485;-78
2021/06/07 10:05:44;;;;;;;8.77;8.10;;;18.10;94.00;;;;;;5019222;28;20538;-78
2021/06/07 10:08:10;;;;;;;9.83;9.03;;;18.20;93.60;;;;;;5019148;28;20517;-78
2021/06/07 10:10:39;;;;;;;9.50;8.70;;;18.30;93.40;;;;;;5028599;28;20488;-77
2021/06/07 10:13:07;;;;;;;9.30;8.43;;;18.30;92.90;;;;;;5021399;28;20443;-79
2021/06/07 10:15:36;;;;;;;10.57;9.47;;;18.40;92.80;;;;;;5021895;28;20882;-78
2021/06/07 10:18:03;;;;;;;8.30;7.60;;;18.60;91.80;;;;;;5020095;28;20505;-76
2021/06/07 10:20:50;;;;;;;8.80;8.00;;;18.70;90.20;;;;;;5022299;28;20455;-77
2021/06/07 10:23:18;;;;;;;9.27;8.47;;;18.90;90.00;;;;;;5023817;28;20977;-77
2021/06/07 10:25:46;;;;;;;8.30;7.60;;;18.90;89.40;;;;;;5020757;28;20448;-78
2021/06/07 10:28:13;;;;;;;8.00;7.30;;;18.90;89.40;;;;;;5019947;28;20489;-78
2021/06/07 10:30:42;;;;;;;9.23;8.33;;;18.80;90.00;;;;;;5018962;28;20454;-78
2021/06/07 10:33:30;;;;;;;9.50;8.60;;;18.80;90.10;;;;;;5017737;28;20573;-77
2021/06/07 10:35:57;;;;;;;11.63;8.43;;;18.70;90.30;;;;;;5022441;28;20950;-78
2021/06/07 10:38:32;;;;;;;9.00;8.17;;;18.60;90.50;;;;;;5021634;28;20958;-79
2021/06/07 10:41:21;;;;;;;10.17;9.23;;;18.50;91.10;;;;;;5018739;28;20445;-78
2021/06/07 10:43:49;;;;;;;9.37;8.40;;;18.30;92.20;;;;;;5020649;28;20493;-79
2021/06/07 10:46:23;;;;;;;9.87;8.97;;;18.20;92.50;;;;;;5021923;28;20498;-79
2021/06/07 10:48:51;;;;;;;8.00;7.13;;;18.20;93.30;;;;;;5020907;28;20457;-78
2021/06/07 10:51:19;;;;;;;9.87;8.27;;;18.40;92.90;;;;;;5018510;28;20447;-78
2021/06/07 10:53:46;;;;;;;7.47;6.70;;;18.70;91.70;;;;;;5020030;28;20824;-79
2021/06/07 10:56:14;;;;;;;8.80;7.90;;;18.80;89.30;;;;;;5020572;28;20536;-79
2021/06/07 10:58:53;;;;;;;9.57;7.80;;;18.90;86.50;;;;;;5019431;28;20477;-79
2021/06/07 11:01:23;;;;;;;8.53;7.67;;;18.80;86.30;;;;;;5020246;28;20574;-78
2021/06/07 11:03:57;;;;;;;9.13;8.23;;;18.90;87.40;;;;;;5029521;28;20466;-78
2021/06/07 11:06:28;;;;;;;11.57;10.47;;;19.00;84.90;;;;;;5031952;28;20521;-78
2021/06/07 11:09:03;;;;;;;12.70;11.03;;;18.90;86.50;;;;;;5021200;28;20455;-78
2021/06/07 11:11:45;;;;;;;12.27;11.20;;;18.70;88.40;;;;;;5022619;28;20461;-78
2021/06/07 11:14:13;;;;;;;11.97;10.90;;;18.70;90.30;;;;;;5025928;28;21002;-78
2021/06/07 11:16:42;;;;;;;12.43;11.33;;;18.80;90.40;;;;;;5023558;28;20513;-78
2021/06/07 11:19:10;;;;;;;12.13;11.13;;;18.70;89.90;;;;;;5029371;28;20444;-78
2021/06/07 11:21:42;;;;;;;12.37;11.27;;;18.70;91.10;;;;;;5024076;28;20517;-78
2021/06/07 11:24:27;;;;;;;12.93;11.70;;;18.60;91.10;;;;;;5022780;28;20458;-79
2021/06/07 11:26:54;;;;;;;14.10;12.70;;;18.50;91.10;;;;;;5025976;28;20471;-78
2021/06/07 11:29:22;;;;;;;15.67;14.10;;;18.40;92.00;;;;;;5033081;28;20448;-80
2021/06/07 11:31:55;;;;;;;17.83;15.70;;;18.50;91.10;;;;;;5031005;28;20457;-79
2021/06/07 11:34:46;;;;;;;18.70;16.10;;;18.50;91.10;;;;;;5031203;28;20478;-79
2021/06/07 11:37:15;;;;;;;18.37;16.57;;;18.50;91.40;;;;;;5030746;28;20478;-79
2021/06/07 11:39:51;;;;;;;20.33;17.87;;;18.60;91.70;;;;;;5031867;28;20478;-78
2021/06/07 11:42:19;;;;;;;24.93;18.53;;;18.50;92.20;;;;;;5032500;28;20482;-79
2021/06/07 11:44:51;;;;;;;18.90;16.27;;;18.50;92.50;;;;;;5027917;28;20470;-79
2021/06/07 11:47:18;;;;;;;19.07;16.63;;;18.50;92.50;;;;;;5030760;28;20477;-78
2021/06/07 11:50:10;;;;;;;22.47;18.00;;;18.60;92.50;;;;;;5024808;28;20451;-77
2021/06/07 11:52:51;;;;;;;21.80;18.50;;;18.70;91.70;;;;;;5025785;28;20549;-79
2021/06/07 11:55:27;;;;;;;22.87;18.43;;;18.70;90.60;;;;;;5024814;28;20430;-78
2021/06/07 11:58:15;;;;;;;24.67;19.23;;;18.60;91.10;;;;;;5026061;28;20482;-79
2021/06/07 12:00:46;;;;;;;25.10;20.40;;;18.60;91.10;;;;;;5030221;28;20455;-78
2021/06/07 12:03:14;;;;;;;25.37;20.90;;;18.40;92.10;;;;;;5021445;28;20497;-78
2021/06/07 12:05:41;;;;;;;27.07;20.70;;;18.50;92.90;;;;;;5018882;28;20447;-78
2021/06/07 12:08:09;;;;;;;30.27;20.63;;;18.50;93.30;;;;;;5019311;28;21020;-79
2021/06/07 12:10:37;;;;;;;30.00;21.53;;;18.20;94.10;;;;;;5020813;28;20482;-78
2021/06/07 12:13:27;;;;;;;24.30;19.17;;;18.20;94.70;;;;;;5020915;28;20486;-78
2021/06/07 12:15:59;;;;;;;27.77;21.30;;;18.40;94.80;;;;;;5024497;28;20501;-78
2021/06/07 12:18:38;;;;;;;31.47;21.30;;;18.60;93.70;;;;;;5020222;28;20511;-77
2021/06/07 12:21:10;;;;;;;27.67;21.57;;;18.40;93.00;;;;;;5018089;28;20485;-78
2021/06/07 12:23:41;;;;;;;26.70;19.73;;;18.70;92.40;;;;;;5019042;28;20450;-79
2021/06/07 12:29:24;;;;;;;29.90;24.10;;;19.10;91.30;;;;;;5024040;28;20554;-77
2021/06/07 12:32:12;;;;;;;29.60;24.30;;;19.10;90.00;;;;;;5031564;28;20817;-79
2021/06/07 12:34:57;;;;;;;34.63;24.50;;;19.00;89.10;;;;;;5023189;28;20416;-79
2021/06/07 12:37:28;;;;;;;31.70;25.47;;;18.70;89.20;;;;;;5020793;28;20537;-79
2021/06/07 12:40:25;;;;;;;31.43;25.40;;;18.40;91.20;;;;;;5019668;28;20451;-78
2021/06/07 12:42:55;;;;;;;32.43;24.07;;;18.50;92.30;;;;;;5019932;28;20494;-78
2021/06/07 12:45:25;;;;;;;30.20;22.70;;;18.60;92.40;;;;;;5024718;28;20481;-77